sensor_id;sensor_type;location;lat;lon;timestamp;pressure;altitude;pressure_sealevel;temperature;humidity
4392;BME280;2210;51.938;8.488;2022-08-07T00:00:29;101549.91;;;14.35;97.37
4392;BME280;2210;51.938;8.488;2022-08-07T00:04:29;101552.69;;;14.35;97.98
4392;BME280;2210;51.938;8.488;2022-08-07T00:08:30;101545.34;;;14.29;97.23
4392;BME280;2210;51.938;8.488;2022-08-07T00:12:31;101543.41;;;14.29;97.73
4392;BME280;2210;51.938;8.488;2022-08-07T00:16:31;101543.06;;;14.26;97.69
4392;BME280;2210;51.938;8.488;2022-08-07T00:20:31;101542.28;;;14.19;97.88
4392;BME280;2210;51.938;8.488;2022-08-07T00:24:31;101540.38;;;14.19;98.05
4392;BME280;2210;51.938;8.488;2022-08-07T00:28:32;101538.28;;;14.14;98.53
4392;BME280;2210;51.938;8.488;2022-08-07T00:32:32;101533.00;;;14.13;98.56
4392;BME280;2210;51.938;8.488;2022-08-07T00:36:32;101533.84;;;14.13;98.97
4392;BME280;2210;51.938;8.488;2022-08-07T00:40:33;101537.19;;;14.04;98.52
4392;BME280;2210;51.938;8.488;2022-08-07T00:44:34;101535.38;;;14.09;99.14
4392;BME280;2210;51.938;8.488;2022-08-07T00:48:34;101532.00;;;14.07;99.11
4392;BME280;2210;51.938;8.488;2022-08-07T00:52:34;101529.28;;;13.89;100.00
4392;BME280;2210;51.938;8.488;2022-08-07T00:56:35;101528.63;;;13.75;100.00
4392;BME280;2210;51.938;8.488;2022-08-07T01:00:35;101533.19;;;13.69;100.00
4392;BME280;2210;51.938;8.488;2022-08-07T01:04:37;101530.91;;;13.66;100.00
4392;BME280;2210;51.938;8.488;2022-08-07T01:08:38;101532.63;;;13.79;100.00
4392;BME280;2210;51.938;8.488;2022-08-07T01:12:40;101513.31;;;13.72;100.00
4392;BME280;2210;51.938;8.488;2022-08-07T01:16:41;101522.25;;;13.74;100.00
4392;BME280;2210;51.938;8.488;2022-08-07T01:20:45;101517.78;;;13.73;99.98
4392;BME280;2210;51.938;8.488;2022-08-07T01:24:45;101529.34;;;13.70;100.00
4392;BME280;2210;51.938;8.488;2022-08-07T01:28:48;101521.47;;;13.67;100.00
4392;BME280;2210;51.938;8.488;2022-08-07T01:32:48;101527.66;;;13.69;100.00
4392;BME280;2210;51.938;8.488;2022-08-07T01:36:49;101526.69;;;13.75;100.00
4392;BME280;2210;51.938;8.488;2022-08-07T01:40:49;101530.47;;;13.81;99.80
4392;BME280;2210;51.938;8.488;2022-08-07T01:44:52;101526.25;;;13.78;100.00
4392;BME280;2210;51.938;8.488;2022-08-07T01:48:52;101514.03;;;13.68;100.00
4392;BME280;2210;51.938;8.488;2022-08-07T01:52:56;101523.66;;;13.65;100.00
4392;BME280;2210;51.938;8.488;2022-08-07T01:57:16;101515.66;;;13.57;100.00
4392;BME280;2210;51.938;8.488;2022-08-07T02:01:29;101514.19;;;13.54;100.00
4392;BME280;2210;51.938;8.488;2022-08-07T02:05:41;101515.97;;;13.48;100.00
4392;BME280;2210;51.938;8.488;2022-08-07T02:09:44;101502.50;;;13.33;100.00
4392;BME280;2210;51.938;8.488;2022-08-07T02:13:46;101507.00;;;13.28;100.00
4392;BME280;2210;51.938;8.488;2022-08-07T02:17:49;101509.56;;;13.11;100.00
4392;BME280;2210;51.938;8.488;2022-08-07T02:21:51;101501.66;;;12.96;100.00
4392;BME280;2210;51.938;8.488;2022-08-07T02:25:52;101500.56;;;12.97;100.00
4392;BME280;2210;51.938;8.488;2022-08-07T02:29:55;101492.78;;;12.87;100.00
4392;BME280;2210;51.938;8.488;2022-08-07T02:33:59;101501.72;;;12.89;100.00
4392;BME280;2210;51.938;8.488;2022-08-07T02:38:01;101495.78;;;12.86;100.00
4392;BME280;2210;51.938;8.488;2022-08-07T02:42:03;101496.25;;;12.82;100.00
4392;BME280;2210;51.938;8.488;2022-08-07T02:46:06;101492.16;;;12.85;100.00
4392;BME280;2210;51.938;8.488;2022-08-07T02:50:08;101491.53;;;12.83;100.00
4392;BME280;2210;51.938;8.488;2022-08-07T02:54:09;101493.94;;;12.79;100.00
4392;BME280;2210;51.938;8.488;2022-08-07T02:58:11;101495.91;;;12.72;100.00
4392;BME280;2210;51.938;8.488;2022-08-07T03:02:13;101493.13;;;12.72;100.00
4392;BME280;2210;51.938;8.488;2022-08-07T03:06:14;101504.44;;;12.71;100.00
4392;BME280;2210;51.938;8.488;2022-08-07T03:10:16;101500.38;;;12.73;100.00
4392;BME280;2210;51.938;8.488;2022-08-07T03:14:17;101494.81;;;12.55;100.00
4392;BME280;2210;51.938;8.488;2022-08-07T03:18:19;101497.41;;;12.50;100.00
4392;BME280;2210;51.938;8.488;2022-08-07T03:22:22;101501.72;;;12.45;100.00
4392;BME280;2210;51.938;8.488;2022-08-07T03:26:26;101501.25;;;12.48;100.00
4392;BME280;2210;51.938;8.488;2022-08-07T03:30:28;101500.94;;;12.31;100.00
4392;BME280;2210;51.938;8.488;2022-08-07T03:34:30;101499.66;;;12.34;100.00
4392;BME280;2210;51.938;8.488;2022-08-07T03:38:31;101497.75;;;12.35;100.00
4392;BME280;2210;51.938;8.488;2022-08-07T03:42:33;101486.97;;;12.26;100.00
4392;BME280;2210;51.938;8.488;2022-08-07T03:46:34;101498.09;;;12.20;100.00
4392;BME280;2210;51.938;8.488;2022-08-07T03:50:36;101497.00;;;12.21;100.00
4392;BME280;2210;51.938;8.488;2022-08-07T03:54:37;101495.75;;;12.17;100.00
4392;BME280;2210;51.938;8.488;2022-08-07T03:58:38;101498.63;;;12.03;100.00
4392;BME280;2210;51.938;8.488;2022-08-07T04:02:39;101492.66;;;12.06;100.00
4392;BME280;2210;51.938;8.488;2022-08-07T04:06:43;101498.19;;;12.06;100.00
4392;BME280;2210;51.938;8.488;2022-08-07T04:10:44;101490.53;;;12.02;100.00
4392;BME280;2210;51.938;8.488;2022-08-07T04:14:45;101496.13;;;11.95;100.00
4392;BME280;2210;51.938;8.488;2022-08-07T04:18:45;101491.44;;;11.95;100.00
4392;BME280;2210;51.938;8.488;2022-08-07T04:22:47;101495.88;;;12.03;100.00
4392;BME280;2210;51.938;8.488;2022-08-07T04:26:48;101498.13;;;12.13;100.00
4392;BME280;2210;51.938;8.488;2022-08-07T04:30:49;101504.72;;;12.12;100.00
4392;BME280;2210;51.938;8.488;2022-08-07T04:34:50;101493.84;;;12.17;100.00
4392;BME280;2210;51.938;8.488;2022-08-07T04:38:51;101495.94;;;12.22;100.00
4392;BME280;2210;51.938;8.488;2022-08-07T04:42:52;101499.75;;;12.21;100.00
4392;BME280;2210;51.938;8.488;2022-08-07T04:47:12;101499.66;;;12.34;100.00
4392;BME280;2210;51.938;8.488;2022-08-07T04:51:23;101505.03;;;12.54;100.00
4392;BME280;2210;51.938;8.488;2022-08-07T04:55:35;101508.69;;;12.73;100.00
4392;BME280;2210;51.938;8.488;2022-08-07T04:59:45;101505.44;;;12.76;100.00
4392;BME280;2210;51.938;8.488;2022-08-07T05:04:08;101506.00;;;12.85;100.00
4392;BME280;2210;51.938;8.488;2022-08-07T05:12:50;101503.31;;;13.15;100.00
4392;BME280;2210;51.938;8.488;2022-08-07T05:16:53;101510.56;;;13.35;100.00
4392;BME280;2210;51.938;8.488;2022-08-07T05:20:59;101509.72;;;13.53;100.00
4392;BME280;2210;51.938;8.488;2022-08-07T05:25:00;101510.63;;;13.65;100.00
4392;BME280;2210;51.938;8.488;2022-08-07T05:29:03;101514.53;;;13.76;100.00
4392;BME280;2210;51.938;8.488;2022-08-07T05:33:06;101516.66;;;13.93;100.00
4392;BME280;2210;51.938;8.488;2022-08-07T05:37:08;101525.28;;;14.15;100.00
4392;BME280;2210;51.938;8.488;2022-08-07T05:41:10;101522.31;;;14.40;100.00
4392;BME280;2210;51.938;8.488;2022-08-07T05:45:11;101522.72;;;14.56;99.12
4392;BME280;2210;51.938;8.488;2022-08-07T05:49:11;101527.34;;;14.74;98.92
4392;BME280;2210;51.938;8.488;2022-08-07T05:53:12;101524.78;;;14.96;98.50
4392;BME280;2210;51.938;8.488;2022-08-07T05:57:13;101528.88;;;15.29;100.00
4392;BME280;2210;51.938;8.488;2022-08-07T06:01:15;101521.56;;;15.51;95.15
4392;BME280;2210;51.938;8.488;2022-08-07T06:05:16;101523.53;;;15.80;94.26
4392;BME280;2210;51.938;8.488;2022-08-07T06:09:17;101529.75;;;15.99;88.81
4392;BME280;2210;51.938;8.488;2022-08-07T06:13:17;101524.22;;;16.16;87.82
4392;BME280;2210;51.938;8.488;2022-08-07T06:17:18;101526.84;;;16.40;86.31
4392;BME280;2210;51.938;8.488;2022-08-07T06:21:18;101533.53;;;16.56;83.40
4392;BME280;2210;51.938;8.488;2022-08-07T06:25:19;101521.56;;;16.55;84.20
4392;BME280;2210;51.938;8.488;2022-08-07T06:29:25;101536.50;;;17.00;83.48
4392;BME280;2210;51.938;8.488;2022-08-07T06:33:26;101529.50;;;17.19;78.29
4392;BME280;2210;51.938;8.488;2022-08-07T06:37:27;101531.09;;;17.32;76.50
4392;BME280;2210;51.938;8.488;2022-08-07T06:41:34;101525.06;;;17.41;80.27
4392;BME280;2210;51.938;8.488;2022-08-07T06:45:38;101532.63;;;17.67;78.23
4392;BME280;2210;51.938;8.488;2022-08-07T06:49:39;101534.91;;;17.70;78.15
4392;BME280;2210;51.938;8.488;2022-08-07T06:53:40;101531.06;;;17.77;78.52
4392;BME280;2210;51.938;8.488;2022-08-07T06:57:43;101529.91;;;17.95;78.12
4392;BME280;2210;51.938;8.488;2022-08-07T07:01:45;101529.22;;;17.87;74.75
4392;BME280;2210;51.938;8.488;2022-08-07T07:05:46;101531.47;;;17.85;75.47
4392;BME280;2210;51.938;8.488;2022-08-07T07:09:47;101534.38;;;17.96;72.59
4392;BME280;2210;51.938;8.488;2022-08-07T07:13:50;101528.63;;;18.35;72.21
4392;BME280;2210;51.938;8.488;2022-08-07T07:18:16;101518.59;;;18.39;69.55
4392;BME280;2210;51.938;8.488;2022-08-07T07:22:19;101519.66;;;18.98;69.46
4392;BME280;2210;51.938;8.488;2022-08-07T07:26:21;101508.81;;;19.12;70.12
4392;BME280;2210;51.938;8.488;2022-08-07T07:30:26;101499.56;;;19.06;68.96
4392;BME280;2210;51.938;8.488;2022-08-07T07:34:29;101489.84;;;19.19;69.23
4392;BME280;2210;51.938;8.488;2022-08-07T07:38:32;101492.47;;;19.36;66.47
4392;BME280;2210;51.938;8.488;2022-08-07T07:42:33;101495.28;;;19.51;63.53
4392;BME280;2210;51.938;8.488;2022-08-07T07:46:36;101493.69;;;19.71;62.30
4392;BME280;2210;51.938;8.488;2022-08-07T07:50:39;101493.69;;;19.66;61.29
4392;BME280;2210;51.938;8.488;2022-08-07T07:54:41;101484.19;;;19.77;60.44
4392;BME280;2210;51.938;8.488;2022-08-07T07:58:42;101485.81;;;19.58;59.79
4392;BME280;2210;51.938;8.488;2022-08-07T08:02:46;101488.16;;;19.86;60.04
4392;BME280;2210;51.938;8.488;2022-08-07T08:06:48;101483.13;;;19.94;59.12
4392;BME280;2210;51.938;8.488;2022-08-07T08:10:49;101472.81;;;20.15;60.16
4392;BME280;2210;51.938;8.488;2022-08-07T08:14:50;101470.84;;;20.05;57.96
4392;BME280;2210;51.938;8.488;2022-08-07T08:18:53;101472.22;;;20.13;57.71
4392;BME280;2210;51.938;8.488;2022-08-07T08:22:55;101473.34;;;20.48;57.51
4392;BME280;2210;51.938;8.488;2022-08-07T08:27:16;101473.06;;;20.70;56.34
4392;BME280;2210;51.938;8.488;2022-08-07T08:31:29;101462.44;;;20.72;54.93
4392;BME280;2210;51.938;8.488;2022-08-07T08:35:33;101472.25;;;20.59;51.99
4392;BME280;2210;51.938;8.488;2022-08-07T08:39:34;101465.78;;;20.64;53.41
4392;BME280;2210;51.938;8.488;2022-08-07T08:44:25;101465.47;;;20.86;51.96
4392;BME280;2210;51.938;8.488;2022-08-07T08:48:31;101458.97;;;21.11;51.09
4392;BME280;2210;51.938;8.488;2022-08-07T08:52:38;101453.38;;;20.96;47.94
4392;BME280;2210;51.938;8.488;2022-08-07T08:56:43;101452.63;;;20.75;46.91
4392;BME280;2210;51.938;8.488;2022-08-07T09:01:07;101447.25;;;20.83;47.52
4392;BME280;2210;51.938;8.488;2022-08-07T09:05:22;101448.88;;;21.05;48.80
4392;BME280;2210;51.938;8.488;2022-08-07T09:09:38;101450.03;;;21.04;49.37
4392;BME280;2210;51.938;8.488;2022-08-07T09:13:45;101450.56;;;21.01;48.39
4392;BME280;2210;51.938;8.488;2022-08-07T09:18:20;101451.34;;;21.27;47.48
4392;BME280;2210;51.938;8.488;2022-08-07T09:32:03;101444.75;;;21.58;46.30
4392;BME280;2210;51.938;8.488;2022-08-07T09:36:15;101442.59;;;21.84;46.50
4392;BME280;2210;51.938;8.488;2022-08-07T09:40:23;101438.91;;;21.94;44.51
4392;BME280;2210;51.938;8.488;2022-08-07T09:48:40;101439.59;;;21.75;44.98
4392;BME280;2210;51.938;8.488;2022-08-07T09:52:51;101429.94;;;21.86;46.12
4392;BME280;2210;51.938;8.488;2022-08-07T10:01:12;101421.25;;;21.38;45.52
4392;BME280;2210;51.938;8.488;2022-08-07T10:09:38;101414.00;;;21.82;45.83
4392;BME280;2210;51.938;8.488;2022-08-07T10:22:37;101395.53;;;22.10;46.72
4392;BME280;2210;51.938;8.488;2022-08-07T10:27:17;101399.50;;;22.04;43.51
4392;BME280;2210;51.938;8.488;2022-08-07T10:31:48;101389.22;;;21.89;44.93
4392;BME280;2210;51.938;8.488;2022-08-07T10:36:03;101384.13;;;22.26;45.58
4392;BME280;2210;51.938;8.488;2022-08-07T10:40:42;101389.63;;;22.06;46.56
4392;BME280;2210;51.938;8.488;2022-08-07T10:45:10;101388.81;;;22.06;45.58
4392;BME280;2210;51.938;8.488;2022-08-07T10:49:21;101378.06;;;22.13;45.91
4392;BME280;2210;51.938;8.488;2022-08-07T10:53:30;101376.31;;;21.88;45.60
4392;BME280;2210;51.938;8.488;2022-08-07T10:57:38;101381.06;;;21.48;46.36
4392;BME280;2210;51.938;8.488;2022-08-07T11:02:00;101374.13;;;21.35;47.46
4392;BME280;2210;51.938;8.488;2022-08-07T11:10:24;101355.59;;;22.13;44.65
4392;BME280;2210;51.938;8.488;2022-08-07T11:14:48;101356.19;;;22.39;43.98
4392;BME280;2210;51.938;8.488;2022-08-07T11:18:57;101352.69;;;22.53;44.91
4392;BME280;2210;51.938;8.488;2022-08-07T11:23:05;101350.69;;;22.59;43.22
4392;BME280;2210;51.938;8.488;2022-08-07T11:27:16;101336.63;;;22.59;43.81
4392;BME280;2210;51.938;8.488;2022-08-07T11:31:33;101329.91;;;22.98;42.01
4392;BME280;2210;51.938;8.488;2022-08-07T11:35:53;101330.75;;;22.79;43.64
4392;BME280;2210;51.938;8.488;2022-08-07T11:40:28;101330.13;;;22.82;43.82
4392;BME280;2210;51.938;8.488;2022-08-07T11:44:53;101324.41;;;22.44;46.36
4392;BME280;2210;51.938;8.488;2022-08-07T11:49:09;101307.97;;;22.56;43.86
4392;BME280;2210;51.938;8.488;2022-08-07T11:53:43;101318.09;;;22.28;45.93
4392;BME280;2210;51.938;8.488;2022-08-07T11:57:58;101319.72;;;22.05;46.43
4392;BME280;2210;51.938;8.488;2022-08-07T12:02:15;101313.69;;;21.93;46.30
4392;BME280;2210;51.938;8.488;2022-08-07T12:07:01;101312.09;;;21.81;48.18
4392;BME280;2210;51.938;8.488;2022-08-07T12:11:08;101309.97;;;21.68;48.76
4392;BME280;2210;51.938;8.488;2022-08-07T12:15:14;101313.94;;;21.62;48.50
4392;BME280;2210;51.938;8.488;2022-08-07T12:19:36;101307.22;;;21.92;46.26
4392;BME280;2210;51.938;8.488;2022-08-07T12:24:03;101301.53;;;21.97;45.59
4392;BME280;2210;51.938;8.488;2022-08-07T12:28:13;101302.19;;;22.18;43.46
4392;BME280;2210;51.938;8.488;2022-08-07T12:36:35;101281.13;;;22.45;43.56
4392;BME280;2210;51.938;8.488;2022-08-07T12:40:37;101280.81;;;22.71;43.14
4392;BME280;2210;51.938;8.488;2022-08-07T12:44:42;101283.41;;;22.86;41.88
4392;BME280;2210;51.938;8.488;2022-08-07T12:48:54;101276.47;;;22.98;43.12
4392;BME280;2210;51.938;8.488;2022-08-07T12:53:00;101269.34;;;23.05;41.61
4392;BME280;2210;51.938;8.488;2022-08-07T12:57:03;101277.66;;;23.35;43.87
4392;BME280;2210;51.938;8.488;2022-08-07T13:09:21;101255.16;;;23.35;42.78
4392;BME280;2210;51.938;8.488;2022-08-07T13:13:33;101259.75;;;23.45;43.13
4392;BME280;2210;51.938;8.488;2022-08-07T13:17:52;101252.50;;;23.57;42.02
4392;BME280;2210;51.938;8.488;2022-08-07T13:22:17;101252.38;;;23.49;42.21
4392;BME280;2210;51.938;8.488;2022-08-07T13:30:21;101245.97;;;23.29;42.61
4392;BME280;2210;51.938;8.488;2022-08-07T13:34:36;101247.00;;;22.95;43.45
4392;BME280;2210;51.938;8.488;2022-08-07T13:38:48;101243.81;;;23.21;42.37
4392;BME280;2210;51.938;8.488;2022-08-07T13:42:51;101234.31;;;23.17;42.45
4392;BME280;2210;51.938;8.488;2022-08-07T13:46:56;101232.97;;;23.14;42.75
4392;BME280;2210;51.938;8.488;2022-08-07T13:50:58;101227.06;;;23.63;41.68
4392;BME280;2210;51.938;8.488;2022-08-07T13:55:05;101225.44;;;23.43;40.71
4392;BME280;2210;51.938;8.488;2022-08-07T13:59:25;101224.00;;;23.45;41.57
4392;BME280;2210;51.938;8.488;2022-08-07T14:03:29;101215.00;;;23.29;40.57
4392;BME280;2210;51.938;8.488;2022-08-07T14:07:33;101217.00;;;23.43;39.87
4392;BME280;2210;51.938;8.488;2022-08-07T14:11:44;101207.63;;;23.33;40.98
4392;BME280;2210;51.938;8.488;2022-08-07T14:15:51;101200.97;;;23.43;40.14
4392;BME280;2210;51.938;8.488;2022-08-07T14:20:15;101206.94;;;23.55;40.48
4392;BME280;2210;51.938;8.488;2022-08-07T14:24:26;101199.53;;;23.46;39.98
4392;BME280;2210;51.938;8.488;2022-08-07T14:28:28;101197.63;;;23.41;40.10
4392;BME280;2210;51.938;8.488;2022-08-07T14:32:29;101193.44;;;23.38;40.43
4392;BME280;2210;51.938;8.488;2022-08-07T14:36:30;101197.41;;;23.37;41.02
4392;BME280;2210;51.938;8.488;2022-08-07T14:40:33;101192.22;;;23.45;41.10
4392;BME280;2210;51.938;8.488;2022-08-07T14:44:35;101184.81;;;23.49;40.10
4392;BME280;2210;51.938;8.488;2022-08-07T14:48:38;101180.94;;;23.31;39.72
4392;BME280;2210;51.938;8.488;2022-08-07T14:52:40;101181.91;;;23.40;41.62
4392;BME280;2210;51.938;8.488;2022-08-07T14:56:42;101184.50;;;23.36;40.94
4392;BME280;2210;51.938;8.488;2022-08-07T15:00:50;101176.34;;;23.35;40.53
4392;BME280;2210;51.938;8.488;2022-08-07T15:04:51;101171.56;;;23.49;39.14
4392;BME280;2210;51.938;8.488;2022-08-07T15:08:52;101175.16;;;23.55;38.98
4392;BME280;2210;51.938;8.488;2022-08-07T15:12:59;101168.22;;;23.33;41.25
4392;BME280;2210;51.938;8.488;2022-08-07T15:17:03;101169.38;;;23.32;40.06
4392;BME280;2210;51.938;8.488;2022-08-07T15:21:16;101161.94;;;23.22;40.41
4392;BME280;2210;51.938;8.488;2022-08-07T15:25:22;101161.94;;;23.22;41.45
4392;BME280;2210;51.938;8.488;2022-08-07T15:29:30;101161.75;;;23.33;40.66
4392;BME280;2210;51.938;8.488;2022-08-07T15:33:33;101166.63;;;23.27;39.35
4392;BME280;2210;51.938;8.488;2022-08-07T15:37:34;101165.69;;;23.32;39.61
4392;BME280;2210;51.938;8.488;2022-08-07T15:41:38;101154.78;;;23.11;38.66
4392;BME280;2210;51.938;8.488;2022-08-07T15:45:49;101152.28;;;23.10;39.95
4392;BME280;2210;51.938;8.488;2022-08-07T15:49:50;101150.16;;;23.20;40.09
4392;BME280;2210;51.938;8.488;2022-08-07T15:53:54;101147.97;;;23.17;39.94
4392;BME280;2210;51.938;8.488;2022-08-07T15:57:56;101149.53;;;23.23;39.26
4392;BME280;2210;51.938;8.488;2022-08-07T16:02:00;101150.16;;;23.20;39.48
4392;BME280;2210;51.938;8.488;2022-08-07T16:06:02;101142.34;;;23.17;39.62
4392;BME280;2210;51.938;8.488;2022-08-07T16:10:12;101140.19;;;23.28;39.58
4392;BME280;2210;51.938;8.488;2022-08-07T16:14:19;101132.84;;;23.13;40.05
4392;BME280;2210;51.938;8.488;2022-08-07T16:18:53;101132.91;;;23.08;41.10
4392;BME280;2210;51.938;8.488;2022-08-07T16:23:29;101134.41;;;23.19;40.44
4392;BME280;2210;51.938;8.488;2022-08-07T16:27:40;101134.56;;;23.09;41.00
4392;BME280;2210;51.938;8.488;2022-08-07T16:31:57;101124.09;;;22.96;42.11
4392;BME280;2210;51.938;8.488;2022-08-07T16:36:28;101131.44;;;23.11;41.44
4392;BME280;2210;51.938;8.488;2022-08-07T16:54:28;101137.41;;;22.90;41.78
4392;BME280;2210;51.938;8.488;2022-08-07T16:58:45;101140.63;;;22.83;43.68
4392;BME280;2210;51.938;8.488;2022-08-07T17:03:07;101133.31;;;22.82;42.63
4392;BME280;2210;51.938;8.488;2022-08-07T17:11:55;101124.06;;;22.82;42.37
4392;BME280;2210;51.938;8.488;2022-08-07T17:16:25;101123.13;;;22.86;42.30
4392;BME280;2210;51.938;8.488;2022-08-07T17:20:30;101127.63;;;22.68;41.22
4392;BME280;2210;51.938;8.488;2022-08-07T17:29:15;101127.34;;;22.51;43.88
4392;BME280;2210;51.938;8.488;2022-08-07T17:33:21;101129.28;;;22.50;44.09
4392;BME280;2210;51.938;8.488;2022-08-07T17:37:29;101120.19;;;22.39;43.75
4392;BME280;2210;51.938;8.488;2022-08-07T17:41:46;101123.22;;;22.43;43.52
4392;BME280;2210;51.938;8.488;2022-08-07T17:45:55;101129.56;;;22.30;44.13
4392;BME280;2210;51.938;8.488;2022-08-07T17:50:05;101129.88;;;22.28;43.23
4392;BME280;2210;51.938;8.488;2022-08-07T17:54:23;101124.19;;;22.33;42.91
4392;BME280;2210;51.938;8.488;2022-08-07T17:58:49;101123.09;;;22.34;43.84
4392;BME280;2210;51.938;8.488;2022-08-07T18:02:59;101120.31;;;22.29;44.49
4392;BME280;2210;51.938;8.488;2022-08-07T18:11:10;101123.63;;;22.12;44.33
4392;BME280;2210;51.938;8.488;2022-08-07T18:15:25;101135.00;;;22.02;44.94
4392;BME280;2210;51.938;8.488;2022-08-07T18:23:56;101129.97;;;21.99;44.71
4392;BME280;2210;51.938;8.488;2022-08-07T18:32:39;101141.94;;;21.85;44.20
4392;BME280;2210;51.938;8.488;2022-08-07T18:40:56;101144.19;;;21.59;45.92
4392;BME280;2210;51.938;8.488;2022-08-07T18:45:11;101158.81;;;21.51;46.75
4392;BME280;2210;51.938;8.488;2022-08-07T18:49:19;101152.53;;;21.35;46.93
4392;BME280;2210;51.938;8.488;2022-08-07T18:54:02;101163.84;;;21.25;47.27
4392;BME280;2210;51.938;8.488;2022-08-07T18:58:19;101167.34;;;21.11;48.22
4392;BME280;2210;51.938;8.488;2022-08-07T19:02:30;101174.44;;;20.98;48.30
4392;BME280;2210;51.938;8.488;2022-08-07T19:06:47;101183.44;;;20.95;48.90
4392;BME280;2210;51.938;8.488;2022-08-07T19:10:57;101178.25;;;20.78;49.80
4392;BME280;2210;51.938;8.488;2022-08-07T19:15:11;101185.28;;;20.70;49.96
4392;BME280;2210;51.938;8.488;2022-08-07T19:23:25;101196.28;;;20.57;49.77
4392;BME280;2210;51.938;8.488;2022-08-07T19:27:30;101195.72;;;20.54;49.66
4392;BME280;2210;51.938;8.488;2022-08-07T19:31:36;101208.34;;;20.47;50.03
4392;BME280;2210;51.938;8.488;2022-08-07T19:35:52;101205.28;;;20.48;50.84
4392;BME280;2210;51.938;8.488;2022-08-07T19:39:57;101206.69;;;20.46;51.23
4392;BME280;2210;51.938;8.488;2022-08-07T19:44:00;101221.56;;;20.36;51.67
4392;BME280;2210;51.938;8.488;2022-08-07T19:48:01;101220.22;;;20.28;54.18
4392;BME280;2210;51.938;8.488;2022-08-07T19:52:01;101209.31;;;20.16;55.25
4392;BME280;2210;51.938;8.488;2022-08-07T19:56:08;101214.69;;;20.02;56.15
4392;BME280;2210;51.938;8.488;2022-08-07T20:00:15;101207.13;;;19.98;56.28
4392;BME280;2210;51.938;8.488;2022-08-07T20:04:22;101216.69;;;19.86;57.18
4392;BME280;2210;51.938;8.488;2022-08-07T20:08:27;101202.38;;;19.78;58.87
4392;BME280;2210;51.938;8.488;2022-08-07T20:12:28;101223.13;;;19.66;58.03
4392;BME280;2210;51.938;8.488;2022-08-07T20:16:30;101221.44;;;19.65;58.09
4392;BME280;2210;51.938;8.488;2022-08-07T20:20:32;101221.72;;;19.74;58.88
4392;BME280;2210;51.938;8.488;2022-08-07T20:24:34;101222.59;;;19.54;58.83
4392;BME280;2210;51.938;8.488;2022-08-07T20:28:35;101230.72;;;19.40;58.37
4392;BME280;2210;51.938;8.488;2022-08-07T20:32:42;101222.88;;;19.32;60.27
4392;BME280;2210;51.938;8.488;2022-08-07T20:36:45;101224.81;;;19.16;61.77
4392;BME280;2210;51.938;8.488;2022-08-07T20:40:49;101213.63;;;19.06;62.56
4392;BME280;2210;51.938;8.488;2022-08-07T20:44:51;101217.25;;;19.01;63.56
4392;BME280;2210;51.938;8.488;2022-08-07T20:48:53;101226.75;;;18.90;64.02
4392;BME280;2210;51.938;8.488;2022-08-07T20:52:56;101214.97;;;18.87;65.54
4392;BME280;2210;51.938;8.488;2022-08-07T20:57:00;101222.72;;;18.65;65.71
4392;BME280;2210;51.938;8.488;2022-08-07T21:01:07;101223.88;;;18.64;65.80
4392;BME280;2210;51.938;8.488;2022-08-07T21:05:12;101227.16;;;18.56;67.23
4392;BME280;2210;51.938;8.488;2022-08-07T21:09:17;101227.16;;;18.45;67.46
4392;BME280;2210;51.938;8.488;2022-08-07T21:13:19;101227.69;;;18.37;68.51
4392;BME280;2210;51.938;8.488;2022-08-07T21:17:23;101232.97;;;18.39;69.79
4392;BME280;2210;51.938;8.488;2022-08-07T21:21:28;101242.72;;;18.31;70.26
4392;BME280;2210;51.938;8.488;2022-08-07T21:25:59;101245.47;;;18.20;69.25
4392;BME280;2210;51.938;8.488;2022-08-07T21:30:08;101233.94;;;18.01;68.96
4392;BME280;2210;51.938;8.488;2022-08-07T21:34:30;101236.75;;;18.12;70.21
4392;BME280;2210;51.938;8.488;2022-08-07T21:43:19;101238.97;;;18.05;71.49
4392;BME280;2210;51.938;8.488;2022-08-07T21:47:28;101236.38;;;17.93;70.52
4392;BME280;2210;51.938;8.488;2022-08-07T21:51:46;101238.81;;;17.89;70.95
4392;BME280;2210;51.938;8.488;2022-08-07T21:56:15;101240.22;;;17.86;72.66
4392;BME280;2210;51.938;8.488;2022-08-07T22:00:21;101237.13;;;17.83;72.30
4392;BME280;2210;51.938;8.488;2022-08-07T22:04:25;101245.13;;;17.74;71.43
4392;BME280;2210;51.938;8.488;2022-08-07T22:08:33;101244.63;;;17.77;73.11
4392;BME280;2210;51.938;8.488;2022-08-07T22:12:45;101246.03;;;17.85;73.09
4392;BME280;2210;51.938;8.488;2022-08-07T22:16:52;101245.84;;;17.92;70.35
4392;BME280;2210;51.938;8.488;2022-08-07T22:20:56;101247.84;;;17.96;69.87
4392;BME280;2210;51.938;8.488;2022-08-07T22:29:22;101244.06;;;17.80;69.04
4392;BME280;2210;51.938;8.488;2022-08-07T22:33:32;101248.50;;;17.76;68.32
4392;BME280;2210;51.938;8.488;2022-08-07T22:37:47;101258.53;;;17.72;71.56
4392;BME280;2210;51.938;8.488;2022-08-07T22:41:55;101259.84;;;17.64;72.32
4392;BME280;2210;51.938;8.488;2022-08-07T22:51:01;101262.22;;;17.45;73.41
4392;BME280;2210;51.938;8.488;2022-08-07T22:55:40;101262.66;;;17.32;73.44
4392;BME280;2210;51.938;8.488;2022-08-07T23:00:06;101257.28;;;17.25;74.53
4392;BME280;2210;51.938;8.488;2022-08-07T23:08:51;101259.63;;;17.06;76.29
4392;BME280;2210;51.938;8.488;2022-08-07T23:17:40;101253.47;;;17.04;76.41
4392;BME280;2210;51.938;8.488;2022-08-07T23:21:55;101255.16;;;17.05;77.01
4392;BME280;2210;51.938;8.488;2022-08-07T23:26:18;101253.91;;;16.91;78.76
4392;BME280;2210;51.938;8.488;2022-08-07T23:30:20;101252.56;;;16.76;77.38
4392;BME280;2210;51.938;8.488;2022-08-07T23:34:46;101256.34;;;16.65;78.42
4392;BME280;2210;51.938;8.488;2022-08-07T23:39:05;101254.22;;;16.72;78.62
4392;BME280;2210;51.938;8.488;2022-08-07T23:52:07;101264.53;;;16.49;78.93
4392;BME280;2210;51.938;8.488;2022-08-07T23:56:25;101261.69;;;16.44;78.02
